createdAt,value
2022-11-06T00:10:07.181Z,11.2
2022-11-06T00:25:16.290Z,11.2
2022-11-06T00:40:29.141Z,10.9
2022-11-06T00:55:38.915Z,10.4
2022-11-06T01:10:48.012Z,9.8
2022-11-06T01:25:57.424Z,9.5
2022-11-06T01:41:06.684Z,9.4
2022-11-06T01:56:16.272Z,9.3
2022-11-06T02:11:28.663Z,9.3
2022-11-06T02:26:38.366Z,9.3
2022-11-06T02:41:47.928Z,9.3
2022-11-06T02:57:00.389Z,9.3
2022-11-06T03:12:10.123Z,9.1
2022-11-06T03:27:19.204Z,8.9
2022-11-06T03:42:28.813Z,8.8
2022-11-06T03:57:41.577Z,8.6
2022-11-06T04:12:51.137Z,8.6
2022-11-06T04:28:03.435Z,8.6
2022-11-06T04:43:13.090Z,8.6
2022-11-06T04:58:25.099Z,8.7
2022-11-06T05:13:34.933Z,8.7
2022-11-06T05:28:44.228Z,8.7
2022-11-06T05:43:54.010Z,8.7
2022-11-06T05:59:03.394Z,8.6
2022-11-06T06:14:15.225Z,8.6
2022-11-06T06:29:25.012Z,8.6
2022-11-06T06:44:34.349Z,8.6
2022-11-06T06:59:47.182Z,8.6
2022-11-06T07:14:57.009Z,8.6
2022-11-06T07:30:07.292Z,8.7
2022-11-06T07:45:17.329Z,8.9
2022-11-06T08:00:27.218Z,8.9
2022-11-06T08:15:37.822Z,9.1
2022-11-06T08:30:50.436Z,9.3
2022-11-06T08:46:00.066Z,9.4
2022-11-06T09:01:09.951Z,9.5
2022-11-06T09:16:20.262Z,9.7
2022-11-06T09:31:30.110Z,10
2022-11-06T09:46:40.386Z,10.2
2022-11-06T10:02:04.331Z,10.4
2022-11-06T10:17:14.619Z,10.6
2022-11-06T10:32:24.373Z,10.8
2022-11-06T10:47:33.762Z,11
2022-11-06T11:02:46.579Z,11.3
2022-11-06T11:17:57.382Z,11.6
2022-11-06T11:33:09.726Z,11.9
2022-11-06T11:48:20.922Z,13.4
2022-11-06T12:03:31.307Z,14.4
2022-11-06T12:18:41.281Z,14.7
2022-11-06T12:34:07.261Z,14.5
2022-11-06T12:49:26.741Z,13.5
2022-11-06T13:04:36.138Z,13.8
2022-11-06T13:19:46.675Z,16
2022-11-06T13:34:57.418Z,16.7
2022-11-06T13:50:04.500Z,14.1
2022-11-06T14:05:13.369Z,13.2
2022-11-06T14:20:22.231Z,12.9
2022-11-06T14:35:32.029Z,12.7
2022-11-06T14:50:41.896Z,12.6
2022-11-06T15:05:52.828Z,12.4
2022-11-06T15:21:02.111Z,12.2
2022-11-06T15:36:11.426Z,12
2022-11-06T15:51:21.032Z,11.8
2022-11-06T16:06:30.758Z,11.6
2022-11-06T16:21:41.118Z,11.5
2022-11-06T16:36:50.521Z,11.4
2022-11-06T16:52:00.078Z,11.4
2022-11-06T17:07:09.924Z,11.3
2022-11-06T17:23:17.681Z,11.6
2022-11-06T17:38:32.949Z,11.4
2022-11-06T17:53:42.142Z,11.4
2022-11-06T18:08:51.380Z,11.3
2022-11-06T18:24:01.046Z,11.2
2022-11-06T18:39:10.468Z,11.3
2022-11-06T18:54:19.794Z,11.4
2022-11-06T19:09:29.394Z,11.7
2022-11-06T19:24:38.927Z,11.8
2022-11-06T19:39:48.849Z,11.7
2022-11-06T19:55:24.544Z,11.4
2022-11-06T20:10:37.402Z,11
2022-11-06T20:25:47.291Z,10.8
2022-11-06T20:40:56.900Z,10.7
2022-11-06T20:56:06.574Z,10.6
2022-11-06T21:11:16.096Z,10.5
2022-11-06T21:26:25.978Z,10.4
2022-11-06T21:41:36.234Z,10.4
2022-11-06T21:56:47.492Z,10.5
2022-11-06T22:11:59.033Z,10.5
2022-11-06T22:27:08.747Z,10.5
2022-11-06T22:42:18.501Z,10.4
2022-11-06T22:57:29.609Z,10.4
2022-11-06T23:12:39.246Z,10.4
2022-11-06T23:27:50.057Z,10.4
2022-11-06T23:42:59.728Z,10.4
2022-11-06T23:58:08.969Z,10.5
